createdAt,value
2022-10-31T00:01:39.082Z,11.48
2022-10-31T00:04:07.316Z,11.48
2022-10-31T00:06:34.494Z,11.45
2022-10-31T00:09:05.168Z,11.52
2022-10-31T00:11:32.701Z,11.52
2022-10-31T00:14:00.465Z,11.54
2022-10-31T00:16:28.393Z,11.61
2022-10-31T00:19:00.730Z,11.69
2022-10-31T00:21:28.883Z,11.70
2022-10-31T00:23:56.015Z,11.70
2022-10-31T00:26:23.074Z,11.73
2022-10-31T00:28:50.375Z,11.75
2022-10-31T00:31:17.415Z,11.78
2022-10-31T00:33:44.877Z,11.75
2022-10-31T00:36:17.383Z,11.72
2022-10-31T00:38:46.073Z,11.69
2022-10-31T00:41:15.588Z,11.67
2022-10-31T00:43:44.233Z,11.66
2022-10-31T00:46:12.679Z,11.66
2022-10-31T00:48:39.879Z,11.64
2022-10-31T00:51:07.462Z,11.67
2022-10-31T00:53:35.330Z,11.68
2022-10-31T00:56:02.367Z,11.69
2022-10-31T00:58:29.393Z,11.69
2022-10-31T01:00:56.621Z,11.72
2022-10-31T01:03:30.846Z,11.73
2022-10-31T01:06:03.631Z,11.77
2022-10-31T01:08:30.931Z,11.79
2022-10-31T01:11:09.760Z,11.78
2022-10-31T01:13:37.284Z,11.78
2022-10-31T01:16:07.452Z,11.84
2022-10-31T01:18:35.239Z,11.81
2022-10-31T01:21:22.081Z,11.77
2022-10-31T01:23:49.377Z,11.73
2022-10-31T01:26:20.721Z,11.66
2022-10-31T01:28:56.467Z,11.60
2022-10-31T01:31:27.862Z,11.61
2022-10-31T01:33:56.019Z,11.55
2022-10-31T01:36:31.019Z,11.61
2022-10-31T01:39:08.886Z,11.66
2022-10-31T01:41:39.286Z,11.66
2022-10-31T01:44:15.318Z,11.65
2022-10-31T01:47:22.756Z,11.64
2022-10-31T01:49:57.805Z,11.64
2022-10-31T01:52:45.748Z,11.61
2022-10-31T01:55:45.283Z,11.59
2022-10-31T01:58:20.586Z,11.59
2022-10-31T02:00:55.619Z,11.59
2022-10-31T02:03:24.698Z,11.55
2022-10-31T02:05:55.741Z,11.54
2022-10-31T02:08:36.158Z,11.58
2022-10-31T02:11:03.151Z,11.60
2022-10-31T02:13:30.495Z,11.60
2022-10-31T02:16:00.054Z,11.60
2022-10-31T02:18:31.312Z,11.63
2022-10-31T02:21:20.696Z,11.62
2022-10-31T02:24:14.790Z,11.69
2022-10-31T02:27:27.785Z,11.72
2022-10-31T02:30:17.012Z,11.73
2022-10-31T02:32:51.788Z,11.73
2022-10-31T02:35:36.928Z,11.73
2022-10-31T02:38:29.646Z,11.75
2022-10-31T02:41:08.966Z,11.81
2022-10-31T02:44:12.033Z,11.85
2022-10-31T02:47:00.638Z,11.83
2022-10-31T02:49:39.795Z,11.79
2022-10-31T02:52:36.793Z,11.73
2022-10-31T02:55:34.678Z,11.67
2022-10-31T02:58:16.448Z,11.73
2022-10-31T03:01:08.594Z,11.80
2022-10-31T03:03:57.709Z,11.79
2022-10-31T03:07:02.002Z,11.81
2022-10-31T03:09:31.853Z,11.83
2022-10-31T03:12:23.755Z,11.81
2022-10-31T03:15:25.169Z,11.75
2022-10-31T03:18:09.362Z,11.76
2022-10-31T03:20:46.795Z,11.78
2022-10-31T03:23:20.378Z,11.78
2022-10-31T03:25:49.475Z,11.75
2022-10-31T03:28:23.151Z,11.73
2022-10-31T03:30:53.829Z,11.70
2022-10-31T03:33:30.014Z,11.74
2022-10-31T03:36:03.462Z,11.79
2022-10-31T03:38:33.128Z,11.73
2022-10-31T03:41:06.720Z,11.71
2022-10-31T03:43:43.853Z,11.75
2022-10-31T03:46:11.359Z,11.74
2022-10-31T03:48:39.726Z,11.72
2022-10-31T03:51:34.091Z,11.77
2022-10-31T03:54:30.086Z,11.78
2022-10-31T03:57:10.156Z,11.78
2022-10-31T03:59:45.294Z,11.79
2022-10-31T04:02:18.081Z,11.82
2022-10-31T04:04:48.729Z,11.82
2022-10-31T04:07:16.831Z,11.80
2022-10-31T04:09:48.793Z,11.79
2022-10-31T04:12:18.304Z,11.81
2022-10-31T04:14:49.884Z,11.82
2022-10-31T04:17:21.667Z,11.83
2022-10-31T04:19:48.735Z,11.82
2022-10-31T04:22:15.622Z,11.83
2022-10-31T04:24:42.762Z,11.82
2022-10-31T04:27:09.628Z,11.79
2022-10-31T04:29:36.597Z,11.72
2022-10-31T04:32:03.494Z,11.69
2022-10-31T04:34:30.513Z,11.67
2022-10-31T04:36:57.410Z,11.64
2022-10-31T04:39:26.667Z,11.64
2022-10-31T04:41:53.854Z,11.64
2022-10-31T04:44:20.976Z,11.61
2022-10-31T04:46:48.007Z,11.57
2022-10-31T04:49:15.050Z,11.54
2022-10-31T04:51:41.921Z,11.54
2022-10-31T04:54:09.109Z,11.53
2022-10-31T04:56:36.393Z,11.51
2022-10-31T04:59:03.735Z,11.50
2022-10-31T05:01:30.950Z,11.52
2022-10-31T05:03:58.009Z,11.54
2022-10-31T05:06:24.896Z,11.52
2022-10-31T05:08:52.068Z,11.54
2022-10-31T05:11:18.914Z,11.58
2022-10-31T05:13:45.943Z,11.54
2022-10-31T05:16:12.871Z,11.55
2022-10-31T05:18:39.647Z,11.54
2022-10-31T05:21:06.717Z,11.52
2022-10-31T05:23:33.556Z,11.51
2022-10-31T05:26:00.652Z,11.50
2022-10-31T05:28:27.539Z,11.50
2022-10-31T05:30:54.504Z,11.51
2022-10-31T05:33:21.296Z,11.55
2022-10-31T05:35:49.151Z,11.56
2022-10-31T05:38:16.020Z,11.50
2022-10-31T05:40:43.102Z,11.42
2022-10-31T05:43:10.439Z,11.45
2022-10-31T05:45:37.765Z,11.45
2022-10-31T05:48:05.499Z,11.39
2022-10-31T05:50:33.593Z,11.37
2022-10-31T05:53:05.415Z,11.38
2022-10-31T05:55:34.033Z,11.41
2022-10-31T05:58:01.427Z,11.35
2022-10-31T06:00:29.793Z,11.32
2022-10-31T06:03:06.271Z,11.26
2022-10-31T06:05:34.018Z,11.28
2022-10-31T06:08:01.461Z,11.28
2022-10-31T06:10:29.245Z,11.30
2022-10-31T06:12:56.166Z,11.28
2022-10-31T06:15:24.736Z,11.29
2022-10-31T06:18:04.131Z,11.29
2022-10-31T06:20:32.921Z,11.32
2022-10-31T06:23:01.441Z,11.29
2022-10-31T06:25:29.606Z,11.30
2022-10-31T06:27:57.101Z,11.28
2022-10-31T06:30:24.196Z,11.29
2022-10-31T06:32:51.003Z,11.30
2022-10-31T06:35:18.899Z,11.36
2022-10-31T06:37:55.017Z,11.40
2022-10-31T06:40:22.705Z,11.41
2022-10-31T06:43:01.322Z,11.46
2022-10-31T06:45:29.079Z,11.46
2022-10-31T06:48:15.942Z,11.48
2022-10-31T06:50:44.045Z,11.48
2022-10-31T06:53:12.084Z,11.50
2022-10-31T06:55:39.584Z,11.47
2022-10-31T06:58:06.634Z,11.45
2022-10-31T07:00:34.280Z,11.42
2022-10-31T07:03:05.228Z,11.42
2022-10-31T07:05:33.254Z,11.36
2022-10-31T07:08:04.654Z,11.32
2022-10-31T07:10:37.390Z,11.44
2022-10-31T07:13:13.081Z,11.50
2022-10-31T07:15:42.551Z,11.52
2022-10-31T07:18:12.049Z,11.54
2022-10-31T07:20:39.486Z,11.54
2022-10-31T07:23:06.785Z,11.62
2022-10-31T07:25:34.316Z,11.66
2022-10-31T07:28:01.446Z,11.63
2022-10-31T07:30:29.173Z,11.71
2022-10-31T07:32:56.544Z,11.79
2022-10-31T07:35:29.913Z,11.80
2022-10-31T07:37:58.054Z,11.83
2022-10-31T07:40:26.433Z,11.86
2022-10-31T07:42:54.458Z,11.86
2022-10-31T07:45:22.221Z,11.88
2022-10-31T07:47:52.122Z,11.89
2022-10-31T07:50:26.662Z,11.90
2022-10-31T07:53:07.628Z,11.85
2022-10-31T07:55:35.502Z,11.84
2022-10-31T07:58:06.909Z,11.86
2022-10-31T08:00:36.580Z,11.88
2022-10-31T08:03:11.605Z,11.92
2022-10-31T08:05:39.403Z,11.90
2022-10-31T08:08:06.988Z,12.03
2022-10-31T08:10:35.792Z,12.11
2022-10-31T08:13:12.163Z,12.16
2022-10-31T08:15:42.310Z,12.22
2022-10-31T08:18:16.257Z,12.26
2022-10-31T08:20:44.591Z,12.22
2022-10-31T08:23:13.227Z,12.24
2022-10-31T08:25:40.425Z,12.32
2022-10-31T08:28:09.561Z,12.37
2022-10-31T08:30:38.392Z,12.42
2022-10-31T08:33:14.462Z,12.44
2022-10-31T08:35:42.443Z,12.44
2022-10-31T08:38:12.643Z,12.45
2022-10-31T08:40:40.306Z,12.47
2022-10-31T08:43:13.657Z,12.48
2022-10-31T08:45:42.134Z,12.50
2022-10-31T08:48:15.745Z,12.49
2022-10-31T08:50:44.334Z,12.54
2022-10-31T08:53:17.155Z,12.57
2022-10-31T08:55:46.565Z,12.62
2022-10-31T08:58:19.854Z,12.63
2022-10-31T09:00:50.597Z,12.65
2022-10-31T09:03:20.822Z,12.65
2022-10-31T09:05:48.075Z,12.68
2022-10-31T09:08:17.380Z,12.74
2022-10-31T09:10:45.528Z,12.81
2022-10-31T09:13:21.697Z,12.89
2022-10-31T09:15:50.931Z,12.92
2022-10-31T09:18:22.330Z,12.95
2022-10-31T09:20:50.943Z,12.97
2022-10-31T09:23:23.963Z,13.01
2022-10-31T09:25:54.284Z,13.02
2022-10-31T09:28:24.711Z,13.05
2022-10-31T09:30:54.624Z,13.07
2022-10-31T09:33:22.547Z,13.11
2022-10-31T09:35:49.689Z,13.15
2022-10-31T09:38:21.302Z,13.16
2022-10-31T09:41:02.432Z,13.23
2022-10-31T09:43:44.458Z,13.27
2022-10-31T09:46:34.435Z,13.26
2022-10-31T09:49:38.893Z,13.22
2022-10-31T09:52:32.260Z,13.23
2022-10-31T09:55:31.369Z,13.25
2022-10-31T09:58:02.030Z,13.29
2022-10-31T10:00:30.537Z,13.28
2022-10-31T10:03:26.544Z,13.30
2022-10-31T10:06:19.886Z,13.32
2022-10-31T10:08:47.108Z,13.34
2022-10-31T10:11:55.813Z,13.37
2022-10-31T10:14:46.246Z,13.43
2022-10-31T10:17:34.088Z,13.50
2022-10-31T10:20:27.863Z,13.57
2022-10-31T10:23:38.855Z,13.65
2022-10-31T10:26:21.107Z,13.74
2022-10-31T10:29:28.260Z,13.76
2022-10-31T10:32:01.157Z,13.81
2022-10-31T10:34:41.078Z,13.76
2022-10-31T10:37:31.663Z,13.79
2022-10-31T10:40:14.559Z,13.81
2022-10-31T10:43:10.292Z,13.85
2022-10-31T10:45:56.797Z,13.88
2022-10-31T10:48:33.035Z,13.88
2022-10-31T10:51:02.578Z,13.93
2022-10-31T10:54:03.159Z,13.97
2022-10-31T10:56:55.997Z,14.02
2022-10-31T10:59:23.827Z,14.09
2022-10-31T11:01:53.131Z,14.15
2022-10-31T11:04:36.457Z,14.20
2022-10-31T11:07:12.911Z,14.23
2022-10-31T11:09:40.072Z,14.29
2022-10-31T11:12:23.556Z,14.32
2022-10-31T11:15:00.442Z,14.35
2022-10-31T11:17:41.070Z,14.41
2022-10-31T11:20:17.823Z,14.47
2022-10-31T11:22:49.302Z,14.52
2022-10-31T11:25:24.970Z,14.58
2022-10-31T11:28:10.661Z,14.64
2022-10-31T11:30:47.915Z,14.70
2022-10-31T11:33:36.652Z,14.76
2022-10-31T11:36:16.410Z,14.81
2022-10-31T11:38:45.241Z,14.91
2022-10-31T11:41:15.368Z,14.93
2022-10-31T11:43:57.154Z,14.99
2022-10-31T11:46:42.992Z,15.06
2022-10-31T11:50:18.323Z,15.13
2022-10-31T11:52:45.855Z,15.21
2022-10-31T11:55:12.662Z,15.27
2022-10-31T11:57:51.176Z,15.29
2022-10-31T12:03:22.792Z,15.44
2022-10-31T12:06:15.208Z,15.50
2022-10-31T12:08:43.184Z,15.56
2022-10-31T12:11:25.115Z,15.61
2022-10-31T12:14:18.214Z,15.74
2022-10-31T12:17:08.045Z,15.80
2022-10-31T12:19:50.051Z,15.86
2022-10-31T12:22:45.092Z,15.88
2022-10-31T12:25:18.897Z,15.89
2022-10-31T12:28:13.728Z,15.92
2022-10-31T12:30:59.789Z,15.95
2022-10-31T12:33:41.609Z,15.96
2022-10-31T12:37:07.889Z,16.00
2022-10-31T12:40:05.466Z,16.02
2022-10-31T12:43:13.408Z,16.02
2022-10-31T12:45:56.346Z,16.05
2022-10-31T12:48:52.654Z,16.07
2022-10-31T12:51:50.578Z,16.10
2022-10-31T12:55:11.922Z,16.12
2022-10-31T12:57:48.358Z,16.14
2022-10-31T13:00:22.072Z,16.15
2022-10-31T13:03:01.335Z,16.19
2022-10-31T13:05:47.407Z,16.20
2022-10-31T13:08:21.160Z,16.24
2022-10-31T13:11:12.514Z,16.27
2022-10-31T13:13:56.551Z,16.30
2022-10-31T13:16:32.458Z,16.34
2022-10-31T13:19:10.499Z,16.35
2022-10-31T13:21:51.464Z,16.37
2022-10-31T13:24:32.422Z,16.38
2022-10-31T13:27:04.719Z,16.39
2022-10-31T13:29:41.149Z,16.41
2022-10-31T13:32:11.350Z,16.42
2022-10-31T13:34:44.245Z,16.44
2022-10-31T13:37:35.077Z,16.45
2022-10-31T13:40:43.671Z,16.47
2022-10-31T13:43:25.718Z,16.48
2022-10-31T13:45:55.610Z,16.48
2022-10-31T13:48:28.806Z,16.48
2022-10-31T13:51:03.502Z,16.49
2022-10-31T13:53:58.270Z,16.50
2022-10-31T13:56:33.112Z,16.50
2022-10-31T13:59:25.820Z,16.50
2022-10-31T14:02:18.775Z,16.48
2022-10-31T14:07:26.746Z,16.49
2022-10-31T14:10:21.179Z,16.49
2022-10-31T14:13:30.175Z,16.51
2022-10-31T14:16:04.447Z,16.52
2022-10-31T14:18:44.049Z,16.52
2022-10-31T14:21:24.625Z,16.53
2022-10-31T14:23:55.052Z,16.51
2022-10-31T14:26:29.422Z,16.50
2022-10-31T14:29:15.818Z,16.47
2022-10-31T14:31:52.672Z,16.45
2022-10-31T14:34:32.112Z,16.43
2022-10-31T14:37:42.485Z,16.39
2022-10-31T14:40:37.257Z,16.36
2022-10-31T14:43:45.483Z,16.36
2022-10-31T14:46:46.431Z,16.29
2022-10-31T14:49:43.748Z,16.26
2022-10-31T14:52:18.157Z,16.20
2022-10-31T14:54:55.483Z,16.17
2022-10-31T14:57:30.004Z,16.13
2022-10-31T15:00:06.261Z,16.09
2022-10-31T15:03:21.919Z,16.01
2022-10-31T15:05:57.106Z,15.94
2022-10-31T15:08:34.846Z,15.86
2022-10-31T15:12:24.044Z,15.79
2022-10-31T15:14:51.696Z,15.68
2022-10-31T15:18:08.237Z,15.61
2022-10-31T15:20:46.993Z,15.52
2022-10-31T15:23:30.504Z,15.41
2022-10-31T15:26:02.843Z,15.32
2022-10-31T15:28:32.193Z,15.21
2022-10-31T15:31:02.874Z,15.11
2022-10-31T15:33:45.332Z,15.01
2022-10-31T15:36:27.161Z,14.82
2022-10-31T15:38:58.558Z,14.71
2022-10-31T15:41:55.098Z,14.61
2022-10-31T15:45:06.136Z,14.45
2022-10-31T15:47:34.730Z,14.37
2022-10-31T15:50:04.783Z,14.27
2022-10-31T15:53:20.821Z,14.21
2022-10-31T15:56:32.511Z,14.19
2022-10-31T15:59:25.959Z,14.12
2022-10-31T16:02:11.492Z,13.98
2022-10-31T16:04:38.843Z,13.86
2022-10-31T16:07:23.237Z,13.80
2022-10-31T16:10:02.897Z,13.81
2022-10-31T16:12:38.670Z,13.73
2022-10-31T16:16:29.303Z,13.77
2022-10-31T16:19:48.867Z,13.70
2022-10-31T16:22:52.749Z,13.60
2022-10-31T16:25:38.581Z,13.54
2022-10-31T16:28:17.754Z,13.38
2022-10-31T16:30:48.815Z,13.36
2022-10-31T16:33:37.334Z,13.36
2022-10-31T16:36:35.928Z,13.38
2022-10-31T16:39:04.900Z,13.40
2022-10-31T16:41:37.374Z,13.44
2022-10-31T16:44:13.392Z,13.47
2022-10-31T16:46:40.612Z,13.50
2022-10-31T16:49:10.629Z,13.52
2022-10-31T16:51:38.164Z,13.47
2022-10-31T16:54:05.326Z,13.43
2022-10-31T16:56:37.557Z,13.39
2022-10-31T16:59:15.895Z,13.31
2022-10-31T17:01:50.413Z,13.33
2022-10-31T17:04:17.506Z,13.34
2022-10-31T17:06:44.612Z,13.34
2022-10-31T17:09:11.537Z,13.36
2022-10-31T17:11:49.493Z,13.36
2022-10-31T17:14:19.612Z,13.34
2022-10-31T17:16:47.063Z,13.34
2022-10-31T17:19:46.738Z,13.32
2022-10-31T17:22:15.619Z,13.24
2022-10-31T17:24:42.650Z,13.19
2022-10-31T17:27:11.677Z,13.16
2022-10-31T17:29:38.621Z,13.15
2022-10-31T17:32:06.101Z,13.14
2022-10-31T17:34:33.039Z,13.17
2022-10-31T17:37:00.169Z,13.18
2022-10-31T17:39:27.037Z,13.15
2022-10-31T17:41:54.086Z,13.12
2022-10-31T17:44:21.143Z,13.02
2022-10-31T17:46:48.183Z,13.05
2022-10-31T17:49:15.162Z,13.05
2022-10-31T17:51:42.216Z,13.05
2022-10-31T17:54:10.842Z,13.09
2022-10-31T17:56:37.914Z,13.07
2022-10-31T18:01:31.700Z,13.07
2022-10-31T18:03:58.766Z,13.03
2022-10-31T18:06:25.799Z,13.06
2022-10-31T18:08:52.704Z,13.07
2022-10-31T18:11:21.903Z,12.99
2022-10-31T18:13:56.686Z,12.92
2022-10-31T18:16:24.974Z,12.86
2022-10-31T18:18:59.473Z,12.89
2022-10-31T18:21:26.783Z,12.92
2022-10-31T18:23:55.953Z,12.92
2022-10-31T18:26:25.141Z,12.94
2022-10-31T18:28:52.857Z,12.94
2022-10-31T18:31:20.736Z,12.95
2022-10-31T18:33:47.770Z,12.96
2022-10-31T18:36:14.921Z,12.91
2022-10-31T18:38:46.600Z,12.87
2022-10-31T18:41:15.066Z,12.84
2022-10-31T18:43:42.694Z,12.78
2022-10-31T18:46:14.638Z,12.73
2022-10-31T18:48:44.509Z,12.71
2022-10-31T18:51:14.637Z,12.74
2022-10-31T18:53:41.844Z,12.78
2022-10-31T18:56:11.052Z,12.78
2022-10-31T18:58:38.224Z,12.75
2022-10-31T19:01:11.160Z,12.81
2022-10-31T19:03:39.579Z,12.86
2022-10-31T19:06:10.593Z,12.89
2022-10-31T19:09:17.916Z,12.88
2022-10-31T19:11:45.057Z,12.83
2022-10-31T19:14:14.910Z,12.79
2022-10-31T19:16:42.185Z,12.78
2022-10-31T19:19:10.270Z,12.70
2022-10-31T19:21:37.454Z,12.65
2022-10-31T19:24:05.021Z,12.62
2022-10-31T19:26:33.418Z,12.60
2022-10-31T19:29:01.095Z,12.59
2022-10-31T19:31:28.140Z,12.64
2022-10-31T19:33:55.090Z,12.66
2022-10-31T19:36:22.936Z,12.70
2022-10-31T19:38:53.178Z,12.71
2022-10-31T19:41:26.645Z,12.69
2022-10-31T19:43:54.923Z,12.65
2022-10-31T19:46:48.123Z,12.68
2022-10-31T19:49:12.775Z,12.65
2022-10-31T19:51:40.126Z,12.67
2022-10-31T19:54:07.391Z,12.68
2022-10-31T19:56:34.764Z,12.62
2022-10-31T19:59:03.218Z,12.64
2022-10-31T20:01:30.461Z,12.68
2022-10-31T20:03:57.403Z,12.64
2022-10-31T20:06:38.889Z,12.62
2022-10-31T20:09:13.934Z,12.63
2022-10-31T20:11:43.925Z,12.64
2022-10-31T20:14:15.622Z,12.64
2022-10-31T20:16:44.648Z,12.58
2022-10-31T20:19:12.024Z,12.56
2022-10-31T20:21:41.096Z,12.56
2022-10-31T20:24:10.707Z,12.58
2022-10-31T20:26:40.874Z,12.57
2022-10-31T20:29:15.903Z,12.52
2022-10-31T20:31:45.601Z,12.51
2022-10-31T20:34:13.816Z,12.55
2022-10-31T20:36:41.092Z,12.55
2022-10-31T20:39:10.312Z,12.53
2022-10-31T20:41:39.512Z,12.51
2022-10-31T20:44:07.204Z,12.51
2022-10-31T20:46:35.000Z,12.54
2022-10-31T20:49:02.049Z,12.52
2022-10-31T20:51:31.687Z,12.53
2022-10-31T20:54:01.445Z,12.53
2022-10-31T20:56:30.112Z,12.50
2022-10-31T20:58:58.009Z,12.54
2022-10-31T21:01:31.489Z,12.52
2022-10-31T21:03:59.399Z,12.48
2022-10-31T21:06:27.829Z,12.45
2022-10-31T21:08:57.578Z,12.48
2022-10-31T21:11:28.295Z,12.47
2022-10-31T21:13:56.144Z,12.52
2022-10-31T21:16:27.933Z,12.52
2022-10-31T21:18:55.262Z,12.49
2022-10-31T21:21:35.422Z,12.45
2022-10-31T21:24:13.332Z,12.37
2022-10-31T21:26:45.106Z,12.40
2022-10-31T21:29:13.860Z,12.39
2022-10-31T21:31:42.575Z,12.36
2022-10-31T21:34:10.832Z,12.31
2022-10-31T21:36:38.959Z,12.21
2022-10-31T21:39:08.786Z,12.25
2022-10-31T21:41:36.037Z,12.20
2022-10-31T21:44:03.371Z,12.27
2022-10-31T21:46:33.340Z,12.32
2022-10-31T21:49:03.825Z,12.29
2022-10-31T21:51:34.678Z,12.28
2022-10-31T21:54:21.214Z,12.26
2022-10-31T21:56:48.439Z,12.34
2022-10-31T21:59:15.380Z,12.39
2022-10-31T22:01:42.918Z,12.42
2022-10-31T22:04:10.848Z,12.43
2022-10-31T22:06:38.543Z,12.34
2022-10-31T22:09:09.173Z,12.31
2022-10-31T22:11:37.521Z,12.27
2022-10-31T22:14:05.044Z,12.22
2022-10-31T22:16:36.423Z,12.27
2022-10-31T22:19:06.534Z,12.31
2022-10-31T22:21:46.704Z,12.38
2022-10-31T22:24:14.311Z,12.35
2022-10-31T22:26:41.864Z,12.40
2022-10-31T22:29:15.953Z,12.36
2022-10-31T22:31:48.419Z,12.36
2022-10-31T22:34:18.994Z,12.32
2022-10-31T22:36:46.410Z,12.29
2022-10-31T22:39:14.133Z,12.24
2022-10-31T22:41:41.966Z,12.29
2022-10-31T22:44:11.576Z,12.33
2022-10-31T22:46:40.277Z,12.29
2022-10-31T22:49:14.713Z,12.28
2022-10-31T22:51:43.692Z,12.30
2022-10-31T22:54:17.524Z,12.31
2022-10-31T22:56:45.370Z,12.29
2022-10-31T22:59:15.230Z,12.34
2022-10-31T23:01:47.414Z,12.37
2022-10-31T23:04:17.085Z,12.34
2022-10-31T23:06:49.154Z,12.27
2022-10-31T23:09:18.380Z,12.19
2022-10-31T23:11:46.292Z,12.22
2022-10-31T23:14:20.511Z,12.20
2022-10-31T23:16:52.850Z,12.18
2022-10-31T23:19:26.409Z,12.20
2022-10-31T23:22:02.141Z,12.26
2022-10-31T23:24:44.705Z,12.29
2022-10-31T23:27:18.114Z,12.29
2022-10-31T23:29:56.764Z,12.27
2022-10-31T23:32:37.052Z,12.28
2022-10-31T23:35:10.500Z,12.25
2022-10-31T23:37:38.851Z,12.23
2022-10-31T23:40:11.089Z,12.25
2022-10-31T23:42:38.166Z,12.24
2022-10-31T23:45:05.417Z,12.25
2022-10-31T23:47:32.500Z,12.25
2022-10-31T23:49:59.523Z,12.28
2022-10-31T23:52:26.590Z,12.32
2022-10-31T23:54:53.670Z,12.34
2022-10-31T23:57:21.009Z,12.35
2022-10-31T23:59:48.296Z,12.33
